Time;durP1;ratioP1;P1;durP2;ratioP2;P2;SDS_P1;SDS_P2;PMS_P1;PMS_P2;Temp;Humidity;BMP_temperature;BMP_pressure;BME280_temperature;BME280_humidity;BME280_pressure;Samples;Min_cycle;Max_cycle;Signal;HPM_P1;HPM_P2
2022/07/26 00:01:01;;;;;;;7.30;1.67;;;18.80;99.90;;;;;;5009581;28;20029;-38
2022/07/26 00:03:26;;;;;;;10.63;2.15;;;18.80;99.90;;;;;;5009667;28;20041;-38
2022/07/26 00:05:52;;;;;;;10.20;2.03;;;18.80;99.90;;;;;;5009254;28;20034;-38
2022/07/26 00:08:18;;;;;;;8.93;1.88;;;18.80;99.90;;;;;;5005827;28;20041;-38
2022/07/26 00:10:47;;;;;;;7.40;1.63;;;18.80;99.90;;;;;;5006603;28;20092;-37
2022/07/26 00:13:16;;;;;;;8.73;1.80;;;18.70;99.90;;;;;;5009475;28;20050;-36
2022/07/26 00:15:42;;;;;;;9.77;1.80;;;18.70;99.90;;;;;;5009159;28;20046;-37
2022/07/26 00:18:09;;;;;;;7.30;1.55;;;18.60;99.90;;;;;;5012205;28;20092;-38
2022/07/26 00:20:34;;;;;;;13.85;2.17;;;18.50;99.90;;;;;;5012865;28;20487;-37
2022/07/26 00:23:00;;;;;;;10.27;1.80;;;18.50;99.90;;;;;;5012780;28;20060;-38
2022/07/26 00:25:26;;;;;;;7.97;1.85;;;18.40;99.90;;;;;;5008567;28;20060;-37
2022/07/26 00:27:52;;;;;;;14.48;2.67;;;18.30;99.90;;;;;;5012264;28;20133;-38
2022/07/26 00:30:18;;;;;;;12.88;2.35;;;18.30;99.90;;;;;;5012968;28;20048;-38
2022/07/26 00:32:44;;;;;;;10.23;1.92;;;18.20;99.90;;;;;;5012578;28;20077;-37
2022/07/26 00:35:10;;;;;;;9.35;1.90;;;18.20;99.90;;;;;;5012472;28;20040;-37
2022/07/26 00:37:36;;;;;;;10.95;2.05;;;18.10;99.90;;;;;;5012251;28;20120;-38
2022/07/26 00:40:02;;;;;;;9.23;1.98;;;18.00;99.90;;;;;;4998683;28;20503;-38
2022/07/26 00:42:27;;;;;;;10.43;1.60;;;18.00;99.90;;;;;;5012390;28;20038;-37
2022/07/26 00:44:53;;;;;;;11.90;1.90;;;18.00;99.90;;;;;;5012301;28;20040;-38
2022/07/26 00:47:19;;;;;;;11.48;1.65;;;17.90;99.90;;;;;;5012436;28;20038;-37
2022/07/26 00:49:44;;;;;;;11.43;2.55;;;17.90;99.90;;;;;;5012664;28;20133;-37
2022/07/26 00:52:11;;;;;;;11.38;1.80;;;17.90;99.90;;;;;;5012019;28;20375;-37
2022/07/26 00:54:42;;;;;;;11.75;1.70;;;17.90;99.90;;;;;;5011237;28;20120;-37
2022/07/26 00:57:08;;;;;;;11.48;2.13;;;17.90;99.90;;;;;;5008582;28;20145;-37
2022/07/26 00:59:34;;;;;;;6.63;1.52;;;17.90;99.90;;;;;;5012344;28;20518;-37
2022/07/26 01:02:01;;;;;;;11.73;2.15;;;17.80;99.90;;;;;;5012110;28;20509;-38
2022/07/26 01:04:27;;;;;;;10.52;2.08;;;17.80;99.90;;;;;;5012035;28;20052;-37
2022/07/26 01:06:53;;;;;;;8.50;1.88;;;17.80;99.90;;;;;;5012066;28;20038;-37
2022/07/26 01:09:19;;;;;;;8.73;2.03;;;17.80;99.90;;;;;;5011863;28;20056;-38
2022/07/26 01:11:44;;;;;;;9.40;2.65;;;17.70;99.90;;;;;;5003490;28;20058;-37
2022/07/26 01:14:10;;;;;;;10.43;2.00;;;17.70;99.90;;;;;;4999273;28;20428;-39
2022/07/26 01:16:36;;;;;;;10.38;2.53;;;17.60;99.90;;;;;;5002523;28;20109;-37
2022/07/26 01:19:02;;;;;;;10.38;2.33;;;17.60;99.90;;;;;;5008582;28;20046;-38
2022/07/26 01:21:32;;;;;;;12.43;2.60;;;17.60;99.90;;;;;;5011411;28;20410;-37
2022/07/26 01:23:58;;;;;;;13.15;2.50;;;17.60;99.90;;;;;;5011861;28;20068;-37
2022/07/26 01:26:24;;;;;;;12.40;1.98;;;17.60;99.90;;;;;;5011381;28;20103;-37
2022/07/26 01:28:50;;;;;;;15.00;2.47;;;17.60;99.90;;;;;;5005311;28;20053;-37
2022/07/26 01:31:16;;;;;;;12.70;2.13;;;17.60;99.90;;;;;;5011495;28;20112;-38
2022/07/26 01:33:42;;;;;;;9.90;2.30;;;17.60;99.90;;;;;;5010198;28;20037;-38
2022/07/26 01:36:08;;;;;;;9.23;1.88;;;17.60;99.90;;;;;;5010115;28;20037;-37
2022/07/26 01:38:34;;;;;;;8.50;2.40;;;17.60;99.90;;;;;;5011025;28;20045;-38
2022/07/26 01:41:00;;;;;;;11.85;2.42;;;17.50;99.90;;;;;;5011414;28;20387;-37
2022/07/26 01:43:25;;;;;;;10.52;1.85;;;17.50;99.90;;;;;;5011168;28;20080;-38
2022/07/26 01:45:52;;;;;;;12.05;2.15;;;17.40;99.90;;;;;;5008723;28;20034;-38
2022/07/26 01:48:17;;;;;;;11.52;2.10;;;17.40;99.90;;;;;;5011124;28;20113;-38
2022/07/26 01:50:43;;;;;;;11.80;1.83;;;17.40;99.90;;;;;;5011218;28;20128;-37
2022/07/26 01:53:09;;;;;;;8.68;2.03;;;17.40;99.90;;;;;;5010698;28;20041;-38
2022/07/26 01:55:35;;;;;;;13.05;2.72;;;17.40;99.90;;;;;;5010991;28;20038;-37
2022/07/26 01:58:03;;;;;;;7.90;1.95;;;17.40;99.90;;;;;;5009303;28;20045;-37
2022/07/26 02:00:32;;;;;;;9.27;2.13;;;17.40;99.90;;;;;;5010983;28;20054;-36
2022/07/26 02:02:58;;;;;;;8.80;2.53;;;17.40;99.90;;;;;;5009905;28;20084;-37
2022/07/26 02:05:24;;;;;;;8.13;1.88;;;17.50;99.90;;;;;;5011091;28;20448;-38
2022/07/26 02:07:49;;;;;;;6.30;2.25;;;17.50;99.90;;;;;;5010705;28;20436;-37
2022/07/26 02:10:15;;;;;;;7.97;1.75;;;17.50;99.90;;;;;;5011124;28;20442;-37
2022/07/26 02:12:41;;;;;;;6.65;1.88;;;17.50;99.90;;;;;;5010556;28;20061;-37
2022/07/26 02:15:09;;;;;;;5.95;1.58;;;17.60;99.90;;;;;;5010765;28;20046;-37
2022/07/26 02:17:34;;;;;;;5.40;1.23;;;17.60;99.90;;;;;;5009540;28;20104;-36
2022/07/26 02:20:01;;;;;;;4.68;1.17;;;17.60;99.90;;;;;;5010578;28;20045;-37
2022/07/26 02:22:27;;;;;;;4.30;1.45;;;17.60;99.90;;;;;;5009262;28;20088;-37
2022/07/26 02:24:53;;;;;;;7.30;1.50;;;17.60;99.90;;;;;;5010969;28;20041;-37
2022/07/26 02:27:18;;;;;;;6.40;1.38;;;17.60;99.90;;;;;;5010203;28;20041;-38
2022/07/26 02:29:44;;;;;;;5.15;1.70;;;17.60;99.90;;;;;;5010396;28;20189;-37
2022/07/26 02:32:10;;;;;;;5.32;1.40;;;17.60;99.90;;;;;;5010211;28;20522;-37
2022/07/26 02:34:35;;;;;;;6.80;1.60;;;17.50;99.90;;;;;;5009577;28;20045;-37
2022/07/26 02:37:02;;;;;;;7.90;1.58;;;17.50;99.90;;;;;;5010292;28;20045;-38
2022/07/26 02:39:28;;;;;;;8.70;1.60;;;17.40;99.90;;;;;;5003772;28;20053;-37
2022/07/26 02:41:55;;;;;;;7.00;1.58;;;17.40;99.90;;;;;;5008550;28;20030;-37
2022/07/26 02:44:20;;;;;;;4.28;1.25;;;17.40;99.90;;;;;;5010365;28;20038;-37
2022/07/26 02:46:46;;;;;;;2.70;1.02;;;17.40;99.90;;;;;;5008403;28;20371;-37
2022/07/26 02:49:12;;;;;;;5.70;1.00;;;17.40;99.90;;;;;;5001907;28;20049;-37
2022/07/26 02:51:37;;;;;;;3.47;1.60;;;17.40;99.90;;;;;;5008748;28;20220;-37
2022/07/26 02:54:03;;;;;;;7.25;1.50;;;17.50;99.90;;;;;;5010277;28;20491;-37
2022/07/26 02:56:29;;;;;;;4.07;1.10;;;17.50;99.90;;;;;;5009841;28;20038;-37
2022/07/26 02:58:55;;;;;;;2.85;1.20;;;17.50;99.90;;;;;;5009967;28;20104;-36
2022/07/26 03:01:20;;;;;;;4.00;1.20;;;17.60;99.90;;;;;;5010392;28;20397;-37
2022/07/26 03:03:47;;;;;;;3.88;1.20;;;17.70;99.90;;;;;;5010038;28;20446;-37
2022/07/26 03:06:12;;;;;;;4.15;1.17;;;17.70;99.90;;;;;;5009850;28;20068;-38
2022/07/26 03:08:38;;;;;;;4.18;1.23;;;17.70;99.90;;;;;;5008838;28;20030;-37
2022/07/26 03:11:05;;;;;;;6.35;1.48;;;17.70;99.90;;;;;;5009801;28;20029;-37
2022/07/26 03:13:31;;;;;;;5.05;1.08;;;17.80;99.90;;;;;;5005871;28;20571;-37
2022/07/26 03:15:57;;;;;;;2.72;1.40;;;17.80;99.90;;;;;;5009504;28;20069;-37
2022/07/26 03:18:22;;;;;;;8.68;1.70;;;17.80;99.90;;;;;;5010023;28;20419;-38
2022/07/26 03:20:48;;;;;;;4.75;1.20;;;17.70;99.90;;;;;;5009584;28;20038;-37
2022/07/26 03:23:15;;;;;;;5.28;1.30;;;17.70;99.90;;;;;;5009851;28;20077;-38
2022/07/26 03:25:41;;;;;;;6.20;1.30;;;17.70;99.90;;;;;;5007583;28;20042;-37
2022/07/26 03:28:06;;;;;;;5.72;1.10;;;17.80;99.90;;;;;;5009638;28;20117;-38
2022/07/26 03:30:32;;;;;;;3.92;1.05;;;17.80;99.90;;;;;;5005716;28;20053;-37
2022/07/26 03:32:58;;;;;;;3.75;1.17;;;17.80;99.90;;;;;;5018942;28;20034;-37
2022/07/26 03:35:24;;;;;;;2.70;1.02;;;17.70;99.90;;;;;;4986279;28;20172;-37
2022/07/26 03:37:50;;;;;;;2.42;1.20;;;17.70;99.90;;;;;;5004901;28;20069;-37
2022/07/26 03:40:17;;;;;;;2.05;1.02;;;17.70;99.90;;;;;;5008464;28;20038;-37
2022/07/26 03:42:44;;;;;;;7.20;1.15;;;17.70;99.90;;;;;;5008630;28;20111;-38
2022/07/26 03:45:10;;;;;;;2.70;0.77;;;17.60;99.90;;;;;;5009525;28;20113;-38
2022/07/26 03:47:36;;;;;;;3.00;1.00;;;17.50;99.90;;;;;;5009900;28;20091;-38
2022/07/26 03:50:03;;;;;;;5.47;1.30;;;17.40;99.90;;;;;;5008254;28;20034;-43
2022/07/26 03:52:28;;;;;;;3.35;0.90;;;17.40;99.90;;;;;;5011704;28;20060;-37
2022/07/26 03:54:54;;;;;;;3.60;1.30;;;17.30;99.90;;;;;;5013712;28;20042;-38
2022/07/26 03:57:19;;;;;;;6.00;1.25;;;17.30;99.90;;;;;;5012935;28;20436;-37
2022/07/26 03:59:45;;;;;;;3.10;0.90;;;17.30;99.90;;;;;;5012478;28;20045;-36
2022/07/26 04:02:11;;;;;;;4.00;1.33;;;17.30;99.90;;;;;;5013086;28;20484;-37
2022/07/26 04:04:36;;;;;;;3.13;1.00;;;17.30;99.90;;;;;;5013476;28;20038;-37
2022/07/26 04:07:02;;;;;;;3.28;0.90;;;17.30;99.90;;;;;;5013070;28;20034;-37
2022/07/26 04:09:28;;;;;;;2.65;1.10;;;17.30;99.90;;;;;;5013185;28;20049;-38
2022/07/26 04:11:53;;;;;;;5.07;0.88;;;17.30;99.90;;;;;;5013094;28;20044;-38
2022/07/26 04:14:20;;;;;;;4.93;1.35;;;17.30;99.90;;;;;;5012082;28;20467;-37
2022/07/26 04:16:46;;;;;;;5.00;0.90;;;17.30;99.90;;;;;;5013167;28;20506;-36
2022/07/26 04:19:11;;;;;;;4.47;1.02;;;17.30;99.90;;;;;;5012896;28;20076;-37
2022/07/26 04:21:37;;;;;;;5.95;1.33;;;17.30;99.90;;;;;;5012537;28;20045;-37
2022/07/26 04:24:03;;;;;;;4.60;1.50;;;17.30;99.90;;;;;;5012863;28;20399;-37
2022/07/26 04:26:29;;;;;;;4.45;0.70;;;17.30;99.90;;;;;;5012695;28;20077;-37
2022/07/26 04:28:56;;;;;;;3.65;1.10;;;17.30;99.90;;;;;;5013062;28;20042;-37
2022/07/26 04:31:22;;;;;;;5.32;1.23;;;17.30;99.90;;;;;;5004925;28;20038;-37
2022/07/26 04:33:47;;;;;;;8.57;1.17;;;17.20;99.90;;;;;;5012869;28;20131;-37
2022/07/26 04:36:13;;;;;;;4.95;0.90;;;17.30;99.90;;;;;;5012594;28;20133;-37
2022/07/26 04:38:40;;;;;;;6.25;1.10;;;17.30;99.90;;;;;;5012608;28;20076;-37
2022/07/26 04:41:06;;;;;;;4.90;1.02;;;17.40;99.90;;;;;;5012489;28;20061;-37
2022/07/26 04:43:31;;;;;;;2.75;0.77;;;17.40;99.90;;;;;;5012442;28;20402;-37
2022/07/26 04:45:57;;;;;;;4.65;1.25;;;17.40;99.90;;;;;;5012664;28;20045;-37
2022/07/26 04:48:23;;;;;;;3.50;1.10;;;17.40;99.90;;;;;;5011316;28;20176;-37
2022/07/26 04:50:49;;;;;;;5.60;0.88;;;17.40;99.90;;;;;;5012250;28;20088;-37
2022/07/26 04:53:15;;;;;;;4.25;0.88;;;17.40;99.90;;;;;;5012371;28;20129;-37
2022/07/26 04:55:41;;;;;;;3.50;0.70;;;17.40;99.90;;;;;;5012169;28;20057;-37
2022/07/26 04:58:07;;;;;;;6.13;0.98;;;17.40;99.90;;;;;;5012092;28;20490;-37
2022/07/26 05:00:33;;;;;;;3.17;0.70;;;17.40;99.90;;;;;;5012072;28;20100;-38
2022/07/26 05:03:00;;;;;;;3.67;0.73;;;17.40;99.90;;;;;;5012040;28;20042;-37
2022/07/26 05:05:30;;;;;;;2.50;0.60;;;17.40;99.90;;;;;;5011233;28;20053;-37
2022/07/26 05:07:58;;;;;;;3.67;0.70;;;17.50;99.90;;;;;;5011984;28;20112;-37
2022/07/26 05:10:35;;;;;;;2.72;0.60;;;17.50;99.90;;;;;;5012145;28;20460;-37
2022/07/26 05:13:03;;;;;;;7.03;0.82;;;17.50;99.90;;;;;;5011754;28;20082;-37
2022/07/26 05:15:30;;;;;;;3.83;0.65;;;17.50;99.90;;;;;;5012009;28;20442;-37
2022/07/26 05:18:04;;;;;;;2.95;0.50;;;17.60;99.90;;;;;;5005494;28;20136;-37
2022/07/26 05:20:30;;;;;;;4.55;0.70;;;17.60;99.90;;;;;;5007415;28;20056;-37
2022/07/26 05:22:57;;;;;;;2.33;0.60;;;17.60;99.90;;;;;;5010614;28;20034;-36
2022/07/26 05:25:22;;;;;;;7.00;0.93;;;17.50;99.90;;;;;;5012077;28;20065;-37
2022/07/26 05:27:48;;;;;;;4.28;0.73;;;17.50;99.90;;;;;;5010669;28;20412;-37
2022/07/26 05:30:14;;;;;;;4.72;0.90;;;17.40;99.90;;;;;;5011736;28;20192;-37
2022/07/26 05:32:40;;;;;;;4.40;0.95;;;17.40;99.90;;;;;;5011644;28;20057;-37
2022/07/26 05:35:07;;;;;;;6.13;1.10;;;17.40;99.90;;;;;;5011685;28;20044;-37
2022/07/26 05:37:33;;;;;;;4.82;0.50;;;17.40;99.90;;;;;;5007019;28;20049;-37
2022/07/26 05:39:59;;;;;;;5.28;0.90;;;17.40;99.90;;;;;;5008023;28;20046;-37
2022/07/26 05:42:25;;;;;;;4.55;1.27;;;17.40;99.90;;;;;;5011364;28;20447;-37
2022/07/26 05:44:51;;;;;;;3.30;0.55;;;17.50;99.90;;;;;;5011486;28;20049;-37
2022/07/26 05:47:17;;;;;;;3.55;0.38;;;17.50;99.90;;;;;;5011461;28;20396;-37
2022/07/26 05:49:43;;;;;;;7.18;1.00;;;17.50;99.90;;;;;;5011480;28;20056;-37
2022/07/26 05:52:09;;;;;;;5.20;0.65;;;17.60;99.90;;;;;;5003369;28;20042;-37
2022/07/26 05:54:35;;;;;;;2.67;0.65;;;17.70;99.90;;;;;;5010423;28;20064;-37
2022/07/26 05:57:00;;;;;;;4.55;0.98;;;17.70;99.90;;;;;;5010861;28;20160;-38
2022/07/26 05:59:26;;;;;;;3.85;0.60;;;17.70;99.90;;;;;;5011062;28;20143;-36
2022/07/26 06:01:55;;;;;;;7.47;0.68;;;17.80;99.90;;;;;;5011159;28;20041;-37
2022/07/26 06:04:22;;;;;;;3.92;0.47;;;17.70;99.90;;;;;;5011253;28;20078;-37
2022/07/26 06:06:47;;;;;;;3.13;0.50;;;17.70;99.90;;;;;;5010910;28;20049;-37
2022/07/26 06:09:13;;;;;;;2.10;0.45;;;17.60;99.90;;;;;;5011103;28;20044;-37
2022/07/26 06:11:39;;;;;;;4.85;0.60;;;17.60;99.90;;;;;;5000891;28;20118;-39
2022/07/26 06:14:05;;;;;;;6.07;0.60;;;17.60;99.90;;;;;;5007336;28;20124;-37
2022/07/26 06:16:30;;;;;;;4.78;0.60;;;17.50;99.90;;;;;;5010976;28;20056;-37
2022/07/26 06:18:56;;;;;;;7.75;0.68;;;17.60;99.90;;;;;;5010601;28;20510;-37
2022/07/26 06:21:22;;;;;;;3.25;0.38;;;17.50;99.90;;;;;;5010483;28;20030;-37
2022/07/26 06:23:48;;;;;;;2.65;0.25;;;17.50;99.90;;;;;;5008975;28;20046;-37
2022/07/26 06:26:13;;;;;;;3.05;0.50;;;17.60;99.90;;;;;;5008332;28;20061;-37
2022/07/26 06:28:40;;;;;;;1.40;0.20;;;17.60;99.90;;;;;;5009882;28;20038;-37
2022/07/26 06:31:06;;;;;;;2.22;0.40;;;17.60;99.90;;;;;;5007482;28;20122;-38
2022/07/26 06:33:32;;;;;;;4.70;0.40;;;17.70;99.90;;;;;;5010656;28;20096;-37
2022/07/26 06:35:57;;;;;;;5.22;0.38;;;17.70;99.90;;;;;;5010225;28;20042;-37
2022/07/26 06:38:23;;;;;;;4.50;0.30;;;17.70;99.90;;;;;;5010411;28;20087;-37
2022/07/26 06:40:49;;;;;;;4.60;0.30;;;17.70;99.90;;;;;;5002842;28;20406;-37
2022/07/26 06:43:14;;;;;;;2.00;0.10;;;17.70;99.90;;;;;;5008141;28;20116;-37
2022/07/26 06:45:40;;;;;;;2.35;0.25;;;17.80;99.90;;;;;;5007024;28;20046;-39
2022/07/26 06:48:06;;;;;;;2.90;0.30;;;17.80;99.90;;;;;;5010139;28;20045;-37
2022/07/26 06:50:32;;;;;;;1.90;0.35;;;17.80;99.90;;;;;;5010367;28;20099;-37
2022/07/26 06:52:57;;;;;;;3.03;0.35;;;17.80;99.90;;;;;;5009829;28;20549;-37
2022/07/26 06:55:23;;;;;;;5.00;0.40;;;17.90;99.90;;;;;;5010131;28;20045;-37
2022/07/26 06:57:49;;;;;;;4.18;0.30;;;18.00;99.90;;;;;;5009677;28;20072;-37
2022/07/26 07:00:15;;;;;;;2.67;0.30;;;17.90;99.90;;;;;;5025214;28;20041;-37
2022/07/26 07:02:41;;;;;;;2.53;0.40;;;18.00;99.90;;;;;;5008970;28;20046;-37
2022/07/26 07:05:07;;;;;;;1.60;0.30;;;17.90;99.90;;;;;;5009918;28;20200;-37
2022/07/26 07:07:35;;;;;;;2.38;0.22;;;18.00;99.90;;;;;;5009648;28;20045;-37
2022/07/26 07:10:02;;;;;;;1.83;0.40;;;18.10;99.90;;;;;;5010249;28;20049;-37
2022/07/26 07:12:28;;;;;;;1.45;0.28;;;18.10;99.90;;;;;;5009428;28;20089;-35
2022/07/26 07:14:53;;;;;;;1.30;0.20;;;18.00;99.90;;;;;;5001085;28;20073;-37
2022/07/26 07:17:20;;;;;;;2.03;0.30;;;17.80;99.90;;;;;;5006557;28;20062;-37
2022/07/26 07:19:46;;;;;;;1.25;0.30;;;17.70;99.90;;;;;;5010122;28;20050;-37
2022/07/26 07:22:11;;;;;;;0.93;0.28;;;17.60;99.90;;;;;;5008034;28;20042;-37
2022/07/26 07:24:38;;;;;;;3.17;0.30;;;17.60;99.90;;;;;;5009991;28;20080;-37
2022/07/26 07:27:04;;;;;;;2.92;0.38;;;17.60;99.90;;;;;;5011092;28;20450;-37
2022/07/26 07:29:30;;;;;;;3.22;0.40;;;17.70;99.90;;;;;;5013809;28;20115;-37
2022/07/26 07:31:55;;;;;;;3.15;0.50;;;17.80;99.90;;;;;;5013889;28;20495;-37
2022/07/26 07:34:21;;;;;;;2.50;0.30;;;18.00;99.90;;;;;;5012725;28;20046;-37
2022/07/26 07:36:51;;;;;;;4.15;0.30;;;18.00;99.90;;;;;;5013644;28;20076;-36
2022/07/26 07:39:17;;;;;;;3.40;0.40;;;18.10;99.90;;;;;;5013167;28;20038;-37
2022/07/26 07:41:44;;;;;;;1.85;0.22;;;18.20;99.90;;;;;;5013739;28;20088;-37
2022/07/26 07:44:10;;;;;;;1.98;0.40;;;18.30;99.90;;;;;;5013760;28;20080;-37
2022/07/26 07:46:35;;;;;;;6.47;1.15;;;18.40;99.90;;;;;;5013452;28;20081;-37
2022/07/26 07:49:01;;;;;;;3.70;0.40;;;18.40;99.90;;;;;;5012541;28;20120;-37
2022/07/26 07:51:28;;;;;;;2.05;0.38;;;18.40;99.90;;;;;;5005572;28;20133;-37
2022/07/26 07:53:54;;;;;;;3.63;0.40;;;18.50;99.90;;;;;;5013422;28;20033;-37
2022/07/26 07:56:20;;;;;;;2.50;0.10;;;18.60;99.90;;;;;;5013324;28;20053;-37
2022/07/26 07:58:46;;;;;;;1.55;0.73;;;18.70;99.90;;;;;;5013228;28;20053;-37
2022/07/26 08:01:12;;;;;;;6.32;0.30;;;18.60;99.90;;;;;;5013372;28;20064;-37
2022/07/26 08:03:38;;;;;;;2.70;0.28;;;18.40;99.90;;;;;;5013351;28;20054;-37
2022/07/26 08:06:06;;;;;;;3.97;0.47;;;18.40;99.90;;;;;;5008048;28;20504;-37
2022/07/26 08:08:31;;;;;;;4.22;0.32;;;18.40;99.90;;;;;;5013307;28;20038;-39
2022/07/26 08:10:57;;;;;;;1.25;0.20;;;18.60;99.90;;;;;;5012973;28;20155;-38
2022/07/26 08:13:23;;;;;;;2.28;0.20;;;18.70;99.90;;;;;;5008748;28;20094;-37
2022/07/26 08:15:53;;;;;;;5.35;0.40;;;18.80;99.90;;;;;;5010153;28;20034;-37
2022/07/26 08:18:20;;;;;;;1.73;0.20;;;18.90;99.90;;;;;;5013339;28;20182;-37
2022/07/26 08:20:46;;;;;;;2.17;0.20;;;18.90;99.90;;;;;;5012931;28;20049;-37
2022/07/26 08:23:12;;;;;;;1.17;0.30;;;18.80;99.90;;;;;;5011832;28;20033;-37
2022/07/26 08:25:37;;;;;;;2.30;0.30;;;19.00;99.90;;;;;;5013130;28;20053;-36
2022/07/26 08:28:03;;;;;;;2.10;0.40;;;19.00;99.90;;;;;;5010474;28;20041;-37
2022/07/26 08:30:32;;;;;;;1.80;0.28;;;19.20;99.90;;;;;;5008352;28;20093;-37
2022/07/26 08:32:58;;;;;;;2.65;0.30;;;19.30;99.90;;;;;;5004778;28;20053;-37
2022/07/26 08:35:24;;;;;;;1.95;0.20;;;19.40;99.90;;;;;;5012673;28;20041;-37
2022/07/26 08:37:49;;;;;;;1.35;0.22;;;19.50;99.70;;;;;;5011708;28;20486;-37
2022/07/26 08:40:15;;;;;;;3.08;0.25;;;19.50;99.30;;;;;;4998442;28;20065;-37
2022/07/26 08:42:57;;;;;;;2.78;0.40;;;19.40;98.80;;;;;;5012482;28;20089;-38
2022/07/26 08:45:24;;;;;;;4.03;0.20;;;19.20;98.30;;;;;;5000102;28;20035;-37
2022/07/26 08:47:50;;;;;;;2.80;0.40;;;19.00;99.10;;;;;;5006549;28;20034;-37
2022/07/26 08:50:16;;;;;;;4.60;0.47;;;18.90;99.90;;;;;;5012281;28;20053;-38
2022/07/26 08:52:43;;;;;;;4.28;0.50;;;18.80;99.90;;;;;;5012203;28;20333;-37
2022/07/26 08:55:10;;;;;;;2.08;0.50;;;18.60;99.90;;;;;;5012274;28;20042;-37
2022/07/26 08:57:35;;;;;;;3.55;0.60;;;18.50;99.90;;;;;;5011789;28;20449;-37
2022/07/26 09:00:18;;;;;;;7.28;0.70;;;18.50;99.90;;;;;;5027507;28;20058;-37
2022/07/26 09:02:44;;;;;;;2.45;0.43;;;18.50;99.90;;;;;;5012244;28;20053;-37
2022/07/26 09:05:10;;;;;;;4.20;0.50;;;18.60;99.90;;;;;;5008482;28;20074;-37
2022/07/26 09:07:38;;;;;;;1.83;0.30;;;18.70;99.90;;;;;;5010644;28;20067;-37
2022/07/26 09:10:08;;;;;;;6.32;0.68;;;18.90;99.90;;;;;;5012199;28;20050;-37
2022/07/26 09:12:34;;;;;;;3.00;0.40;;;19.10;99.90;;;;;;5010821;28;20459;-37
2022/07/26 09:15:03;;;;;;;1.60;0.30;;;19.40;99.90;;;;;;5002865;28;20046;-37
2022/07/26 09:17:41;;;;;;;3.72;0.30;;;19.70;99.90;;;;;;5010574;28;20058;-37
2022/07/26 09:20:08;;;;;;;3.42;0.45;;;19.80;99.00;;;;;;5011925;28;20048;-37
2022/07/26 09:22:36;;;;;;;2.45;0.40;;;19.90;98.80;;;;;;5011427;28;20103;-37
2022/07/26 09:25:18;;;;;;;3.30;0.63;;;20.10;98.10;;;;;;5011907;28;20045;-37
2022/07/26 09:27:43;;;;;;;3.78;0.40;;;20.20;96.90;;;;;;5009846;28;20156;-37
2022/07/26 09:30:10;;;;;;;2.30;0.30;;;20.40;96.20;;;;;;5011454;28;20120;-37
2022/07/26 09:32:35;;;;;;;2.40;0.43;;;20.40;94.60;;;;;;5010014;28;20563;-38
2022/07/26 09:35:20;;;;;;;4.25;0.52;;;20.50;93.80;;;;;;5005691;28;20156;-37
2022/07/26 09:37:47;;;;;;;3.60;0.40;;;20.70;93.00;;;;;;5010975;28;20522;-38
2022/07/26 09:40:15;;;;;;;1.98;0.32;;;20.60;93.00;;;;;;5010283;28;20483;-37
2022/07/26 09:42:55;;;;;;;6.13;0.50;;;20.60;92.30;;;;;;5011068;28;20038;-37
2022/07/26 09:45:21;;;;;;;5.38;0.70;;;20.60;91.40;;;;;;5011379;28;20053;-37
2022/07/26 09:47:47;;;;;;;3.40;0.63;;;20.60;92.10;;;;;;5011472;28;20152;-37
2022/07/26 09:50:14;;;;;;;1.88;0.30;;;20.60;92.20;;;;;;5003703;28;20048;-37
2022/07/26 09:52:55;;;;;;;3.35;0.60;;;20.50;92.40;;;;;;5004316;28;20046;-37
2022/07/26 09:55:21;;;;;;;5.68;0.50;;;20.40;92.40;;;;;;5011064;28;20045;-37
2022/07/26 09:57:48;;;;;;;1.45;0.40;;;20.30;92.50;;;;;;5009057;28;20045;-37
2022/07/26 10:00:14;;;;;;;5.28;0.68;;;20.20;92.60;;;;;;5005768;28;20045;-36
2022/07/26 10:02:40;;;;;;;4.78;0.50;;;20.00;92.80;;;;;;5010959;28;20517;-37
2022/07/26 10:05:06;;;;;;;3.40;0.63;;;19.80;93.10;;;;;;5011044;28;20121;-37
2022/07/26 10:07:32;;;;;;;3.15;0.50;;;19.80;93.30;;;;;;5007995;28;20120;-37
2022/07/26 10:10:03;;;;;;;6.80;0.60;;;19.90;93.10;;;;;;5010602;28;20107;-37
2022/07/26 10:12:31;;;;;;;2.70;0.45;;;20.10;92.60;;;;;;5010699;28;20049;-36
2022/07/26 10:14:57;;;;;;;3.35;0.57;;;20.10;91.70;;;;;;5011017;28;20037;-36
2022/07/26 10:17:25;;;;;;;3.47;1.35;;;20.10;91.80;;;;;;4997229;28;20061;-37
2022/07/26 10:19:54;;;;;;;2.20;0.32;;;20.20;91.60;;;;;;5009425;28;20042;-37
2022/07/26 10:22:30;;;;;;;7.15;0.77;;;20.20;91.40;;;;;;5010256;28;20117;-37
2022/07/26 10:25:16;;;;;;;7.05;1.20;;;20.20;91.90;;;;;;5006509;28;20037;-37
2022/07/26 10:27:53;;;;;;;5.95;1.23;;;20.00;92.30;;;;;;4985979;28;20068;-37
2022/07/26 10:30:21;;;;;;;5.97;0.77;;;19.70;93.00;;;;;;5010700;28;20548;-37
2022/07/26 10:32:50;;;;;;;4.90;0.70;;;19.50;93.50;;;;;;5009397;28;20127;-37
2022/07/26 10:35:40;;;;;;;3.75;0.65;;;19.40;94.40;;;;;;5009219;28;20063;-37
2022/07/26 10:38:34;;;;;;;5.53;0.90;;;19.20;95.30;;;;;;5009433;28;20045;-37
2022/07/26 10:41:00;;;;;;;5.18;0.80;;;19.10;95.30;;;;;;4997914;28;20149;-36
2022/07/26 10:43:27;;;;;;;13.00;1.23;;;19.00;95.70;;;;;;5010339;28;20049;-37
2022/07/26 10:46:16;;;;;;;6.25;0.75;;;19.10;95.80;;;;;;5010358;28;20037;-37
2022/07/26 10:49:03;;;;;;;6.55;0.90;;;19.20;95.10;;;;;;4994606;28;20065;-37
2022/07/26 10:51:41;;;;;;;4.97;0.70;;;19.40;94.30;;;;;;5010179;28;20502;-37
2022/07/26 10:54:11;;;;;;;5.18;0.70;;;19.60;93.70;;;;;;5001982;28;20069;-37
2022/07/26 10:56:37;;;;;;;5.68;0.75;;;19.80;93.20;;;;;;5007480;28;20122;-37
2022/07/26 10:59:03;;;;;;;6.20;1.00;;;20.10;92.50;;;;;;5010138;28;20108;-37
2022/07/26 11:01:36;;;;;;;3.63;0.50;;;20.30;92.00;;;;;;5009997;28;20046;-36
2022/07/26 11:04:02;;;;;;;8.07;0.88;;;20.60;90.80;;;;;;5010226;28;20092;-37
2022/07/26 11:06:29;;;;;;;6.20;0.77;;;20.70;90.80;;;;;;5009994;28;20126;-37
2022/07/26 11:08:55;;;;;;;7.95;0.90;;;20.50;89.70;;;;;;5010054;28;20048;-37
2022/07/26 11:11:28;;;;;;;8.25;0.93;;;20.30;89.30;;;;;;5005742;28;20423;-37
2022/07/26 11:14:09;;;;;;;5.22;0.65;;;20.00;89.70;;;;;;4994847;28;20042;-37
2022/07/26 11:16:40;;;;;;;4.50;0.88;;;19.80;90.40;;;;;;5009832;28;20086;-37
2022/07/26 11:19:14;;;;;;;7.75;1.00;;;19.70;90.70;;;;;;5009643;28;20065;-37
2022/07/26 11:21:40;;;;;;;6.63;0.80;;;19.60;90.60;;;;;;5009707;28;20041;-37
2022/07/26 11:24:09;;;;;;;6.10;0.70;;;19.70;91.00;;;;;;5009610;28;20088;-37
2022/07/26 11:26:45;;;;;;;13.93;1.60;;;19.80;91.00;;;;;;5005745;28;20045;-37
2022/07/26 11:29:12;;;;;;;7.57;1.02;;;19.90;90.00;;;;;;5009652;28;20042;-37
2022/07/26 11:31:43;;;;;;;5.38;1.10;;;19.90;90.10;;;;;;5009836;28;20042;-37
2022/07/26 11:34:21;;;;;;;11.25;1.20;;;20.00;90.00;;;;;;5009968;28;20139;-37
2022/07/26 11:36:49;;;;;;;6.00;0.80;;;20.20;88.00;;;;;;5005233;28;20115;-39
2022/07/26 11:39:20;;;;;;;7.10;0.80;;;20.30;88.80;;;;;;5008722;28;20096;-37
2022/07/26 11:41:46;;;;;;;6.32;0.70;;;20.40;87.80;;;;;;5006858;28;20635;-37
2022/07/26 11:44:21;;;;;;;4.72;0.75;;;20.60;87.60;;;;;;4998608;28;20036;-37
2022/07/26 11:46:47;;;;;;;4.53;0.73;;;20.70;87.50;;;;;;5009519;28;20558;-37
2022/07/26 11:49:21;;;;;;;4.78;0.80;;;20.70;85.70;;;;;;5009727;28;20037;-37
2022/07/26 11:51:53;;;;;;;6.40;0.95;;;20.80;83.90;;;;;;5005638;28;20042;-37
2022/07/26 11:54:20;;;;;;;3.60;0.57;;;20.80;83.30;;;;;;5009913;28;20129;-37
2022/07/26 11:57:04;;;;;;;7.43;0.68;;;20.90;82.30;;;;;;5009184;28;20042;-36
2022/07/26 11:59:32;;;;;;;9.30;0.70;;;20.90;80.70;;;;;;5007267;28;20042;-37
2022/07/26 12:02:01;;;;;;;3.95;0.70;;;20.90;82.10;;;;;;5009921;28;20061;-37
2022/07/26 12:04:30;;;;;;;6.13;1.02;;;21.00;81.50;;;;;;5009821;28;20042;-37
2022/07/26 12:06:57;;;;;;;7.57;0.85;;;20.90;80.70;;;;;;5008077;28;20037;-37
2022/07/26 12:09:39;;;;;;;4.50;0.68;;;21.10;80.10;;;;;;5007100;28;20042;-37
2022/07/26 12:12:07;;;;;;;5.97;0.70;;;21.20;77.90;;;;;;5009405;28;20076;-36
2022/07/26 12:14:39;;;;;;;9.18;1.45;;;21.30;77.80;;;;;;5006846;28;20042;-37
2022/07/26 12:17:15;;;;;;;7.32;0.70;;;21.40;77.80;;;;;;5006194;28;20122;-37
2022/07/26 12:19:42;;;;;;;4.95;0.57;;;21.60;74.50;;;;;;5001859;28;20515;-37
2022/07/26 12:22:13;;;;;;;7.30;1.50;;;21.70;74.50;;;;;;5012624;28;20040;-37
2022/07/26 12:24:52;;;;;;;5.33;0.50;;;21.70;73.50;;;;;;5012826;28;20038;-37
2022/07/26 12:27:19;;;;;;;4.20;0.70;;;21.70;69.90;;;;;;5012611;28;20034;-37
2022/07/26 12:29:54;;;;;;;8.57;0.63;;;21.90;73.00;;;;;;5012682;28;20468;-36
2022/07/26 12:32:30;;;;;;;1.95;0.38;;;22.10;70.80;;;;;;5011264;28;20156;-37
2022/07/26 12:35:14;;;;;;;3.13;0.60;;;22.20;66.70;;;;;;4996907;28;20559;-37
2022/07/26 12:37:45;;;;;;;3.75;0.57;;;22.40;66.40;;;;;;5012496;28;20042;-40
2022/07/26 12:40:15;;;;;;;6.50;0.60;;;22.70;66.80;;;;;;5004430;28;20038;-37
2022/07/26 12:42:55;;;;;;;4.38;0.47;;;23.00;65.00;;;;;;5012446;28;20041;-37
2022/07/26 12:45:24;;;;;;;6.40;0.70;;;23.30;62.50;;;;;;5009857;28;20112;-37
2022/07/26 12:47:52;;;;;;;3.40;0.70;;;23.20;62.60;;;;;;5011145;28;20164;-37